createdAt,value
2023-05-25T00:00:27.624Z,88.94
2023-05-25T00:05:29.371Z,89.46
2023-05-25T00:10:31.159Z,92.43
2023-05-25T00:15:32.883Z,95.71
2023-05-25T00:20:34.749Z,92.96
2023-05-25T00:25:36.506Z,94.86
2023-05-25T00:30:38.454Z,95.75
2023-05-25T00:35:42.769Z,96.96
2023-05-25T00:40:45.408Z,97.41
2023-05-25T00:45:48.093Z,95.62
2023-05-25T00:50:54.911Z,94.91
2023-05-25T00:56:11.761Z,92.29
2023-05-25T01:01:15.757Z,93.16
2023-05-25T01:06:18.963Z,95.11
2023-05-25T01:11:27.039Z,98.70
2023-05-25T01:16:29.850Z,96.80
2023-05-25T01:22:01.318Z,95.11
2023-05-25T01:27:32.467Z,98.99
2023-05-25T01:32:35.377Z,99.65
2023-05-25T01:37:38.007Z,96.45
2023-05-25T01:42:39.749Z,96.95
2023-05-25T01:47:50.491Z,99.85
2023-05-25T01:53:16.169Z,99.53
2023-05-25T01:58:19.732Z,100.00
2023-05-25T02:03:21.779Z,99.19
2023-05-25T02:08:24.352Z,97.32
2023-05-25T02:13:26.317Z,98.95
2023-05-25T02:18:28.427Z,100.00
2023-05-25T02:23:30.409Z,100.00
2023-05-25T02:28:32.147Z,100.00
2023-05-25T02:33:33.868Z,100.00
2023-05-25T02:38:35.602Z,100.00
2023-05-25T02:43:37.567Z,99.96
2023-05-25T02:48:39.662Z,100.00
2023-05-25T02:53:41.751Z,98.05
2023-05-25T02:58:43.591Z,99.43
2023-05-25T03:03:52.233Z,100.00
2023-05-25T03:08:55.107Z,100.00
2023-05-25T03:13:56.907Z,100.00
2023-05-25T03:18:58.790Z,100.00
2023-05-25T03:24:00.720Z,100.00
2023-05-25T03:29:02.562Z,100.00
2023-05-25T03:34:04.492Z,100.00
2023-05-25T03:39:10.252Z,100.00
2023-05-25T03:44:12.216Z,100.00
2023-05-25T03:49:15.348Z,100.00
2023-05-25T03:54:17.220Z,100.00
2023-05-25T03:59:19.073Z,100.00
2023-05-25T04:04:22.274Z,100.00
2023-05-25T04:09:24.089Z,100.00
2023-05-25T04:14:25.909Z,100.00
2023-05-25T04:19:27.936Z,100.00
2023-05-25T04:24:29.666Z,100.00
2023-05-25T04:29:32.160Z,100.00
2023-05-25T04:34:54.546Z,99.23
2023-05-25T04:40:08.847Z,96.90
2023-05-25T04:45:10.897Z,94.40
2023-05-25T04:50:13.168Z,93.10
2023-05-25T04:55:15.336Z,93.83
2023-05-25T05:00:20.717Z,93.21
2023-05-25T05:05:23.541Z,91.72
2023-05-25T05:10:26.882Z,90.96
2023-05-25T05:15:32.480Z,89.86
2023-05-25T05:20:35.486Z,89.54
2023-05-25T05:25:38.666Z,88.54
2023-05-25T05:30:41.185Z,86.35
2023-05-25T05:35:44.571Z,86.62
2023-05-25T05:40:53.636Z,80.81
2023-05-25T05:45:57.801Z,79.09
2023-05-25T05:50:59.932Z,76.26
2023-05-25T05:56:03.251Z,74.01
2023-05-25T06:01:09.168Z,70.29
2023-05-25T06:06:11.434Z,65.43
2023-05-25T06:11:14.396Z,65.37
2023-05-25T06:16:16.738Z,64.42
2023-05-25T06:21:18.837Z,63.75
2023-05-25T06:26:23.806Z,63.86
2023-05-25T06:31:26.584Z,62.61
2023-05-25T06:36:28.586Z,62.15
2023-05-25T06:41:31.128Z,58.51
2023-05-25T06:46:33.568Z,58.71
2023-05-25T06:51:35.586Z,58.88
2023-05-25T06:56:37.472Z,57.64
2023-05-25T07:01:39.521Z,55.07
2023-05-25T07:06:41.606Z,56.19
2023-05-25T07:11:43.534Z,56.08
2023-05-25T07:16:46.016Z,56.00
2023-05-25T07:21:48.088Z,56.73
2023-05-25T07:26:50.240Z,58.84
2023-05-25T07:31:52.388Z,57.17
2023-05-25T07:36:54.434Z,54.07
2023-05-25T07:41:56.395Z,52.47
2023-05-25T07:46:58.318Z,53.85
2023-05-25T07:52:00.055Z,52.79
2023-05-25T07:57:01.802Z,50.14
2023-05-25T08:02:04.021Z,48.79
2023-05-25T08:07:05.836Z,49.77
2023-05-25T08:12:30.592Z,48.18
2023-05-25T08:17:29.410Z,48.75
2023-05-25T08:22:31.377Z,47.56
2023-05-25T08:27:35.451Z,46.57
2023-05-25T08:32:37.688Z,47.66
2023-05-25T08:37:40.076Z,46.61
2023-05-25T08:42:46.105Z,50.26
2023-05-25T08:47:49.243Z,48.65
2023-05-25T08:52:53.307Z,49.98
2023-05-25T08:58:02.794Z,48.61
2023-05-25T09:03:09.393Z,46.76
2023-05-25T09:08:11.525Z,47.28
2023-05-25T09:13:21.770Z,43.97
2023-05-25T09:18:24.950Z,45.77
2023-05-25T09:23:26.658Z,46.55
2023-05-25T09:28:28.449Z,45.97
2023-05-25T09:33:30.803Z,43.51
2023-05-25T09:38:33.074Z,45.94
2023-05-25T09:43:44.499Z,46.72
2023-05-25T09:48:50.319Z,45.48
2023-05-25T09:53:52.220Z,44.00
2023-05-25T09:58:54.375Z,45.87
2023-05-25T10:04:04.288Z,47.61
2023-05-25T10:09:11.377Z,45.81
2023-05-25T10:14:17.927Z,44.96
2023-05-25T10:19:32.304Z,42.37
2023-05-25T10:24:47.964Z,43.38
2023-05-25T10:29:50.455Z,41.24
2023-05-25T10:34:53.304Z,41.97
2023-05-25T10:39:58.091Z,41.98
2023-05-25T10:45:00.616Z,40.46
2023-05-25T10:50:03.515Z,41.99
2023-05-25T10:55:06.004Z,42.49
2023-05-25T11:00:08.963Z,42.55
2023-05-25T11:05:41.019Z,40.15
2023-05-25T11:10:49.251Z,42.13
2023-05-25T11:16:17.668Z,42.05
2023-05-25T11:21:30.308Z,41.10
2023-05-25T11:26:35.751Z,39.61
2023-05-25T11:31:39.970Z,41.45
2023-05-25T11:36:45.650Z,41.32
2023-05-25T11:41:50.290Z,39.98
2023-05-25T11:46:53.703Z,43.04
2023-05-25T11:51:57.527Z,38.60
2023-05-25T11:57:00.373Z,40.13
2023-05-25T12:02:03.874Z,40.30
2023-05-25T12:07:08.043Z,39.26
2023-05-25T12:12:09.945Z,39.17
2023-05-25T12:17:11.934Z,39.38
2023-05-25T12:22:14.735Z,36.35
2023-05-25T12:27:18.850Z,39.72
2023-05-25T12:32:21.008Z,38.22
2023-05-25T12:37:23.667Z,38.87
2023-05-25T12:42:31.329Z,36.46
2023-05-25T12:47:33.640Z,37.54
2023-05-25T12:52:44.233Z,38.15
2023-05-25T12:57:47.555Z,37.68
2023-05-25T13:02:50.788Z,38.00
2023-05-25T13:07:55.204Z,38.92
2023-05-25T13:12:58.695Z,37.20
2023-05-25T13:18:00.968Z,37.19
2023-05-25T13:23:03.532Z,37.98
2023-05-25T13:28:06.738Z,37.62
2023-05-25T13:33:09.929Z,38.92
2023-05-25T13:38:13.983Z,39.68
2023-05-25T13:43:17.256Z,40.44
2023-05-25T13:48:19.482Z,39.77
2023-05-25T13:53:21.984Z,38.98
2023-05-25T13:58:25.406Z,37.79
2023-05-25T14:03:27.839Z,38.18
2023-05-25T14:08:31.158Z,37.96
2023-05-25T14:13:33.610Z,38.69
2023-05-25T14:18:35.645Z,37.55
2023-05-25T14:23:37.521Z,37.67
2023-05-25T14:28:39.624Z,38.65
2023-05-25T14:33:43.091Z,37.98
2023-05-25T14:38:45.150Z,39.11
2023-05-25T14:43:47.115Z,38.43
2023-05-25T14:48:49.456Z,38.32
2023-05-25T14:53:53.443Z,35.99
2023-05-25T14:58:55.555Z,36.51
2023-05-25T15:03:57.799Z,35.94
2023-05-25T15:09:00.013Z,36.53
2023-05-25T15:14:02.076Z,37.16
2023-05-25T15:19:04.259Z,36.75
2023-05-25T15:24:06.574Z,36.94
2023-05-25T15:29:08.587Z,36.69
2023-05-25T15:34:11.418Z,38.49
2023-05-25T15:39:16.634Z,37.70
2023-05-25T15:44:18.774Z,35.98
2023-05-25T15:49:21.061Z,35.86
2023-05-25T15:54:23.242Z,38.84
2023-05-25T15:59:34.737Z,38.79
2023-05-25T16:04:36.540Z,39.12
2023-05-25T16:09:38.202Z,40.37
2023-05-25T16:14:40.680Z,40.06
2023-05-25T16:19:42.463Z,40.11
2023-05-25T16:24:44.116Z,40.52
2023-05-25T16:29:45.817Z,41.04
2023-05-25T16:34:47.460Z,40.00
2023-05-25T16:39:49.267Z,40.70
2023-05-25T16:44:59.323Z,41.48
2023-05-25T16:50:01.062Z,40.92
2023-05-25T16:55:02.856Z,41.67
2023-05-25T17:00:05.563Z,41.72
2023-05-25T17:05:08.532Z,41.86
2023-05-25T17:10:10.703Z,42.72
2023-05-25T17:15:15.972Z,41.53
2023-05-25T17:20:17.831Z,43.42
2023-05-25T17:25:19.631Z,43.03
2023-05-25T17:30:21.660Z,44.23
2023-05-25T17:35:23.385Z,44.23
2023-05-25T17:40:25.090Z,45.79
2023-05-25T17:45:26.795Z,44.44
2023-05-25T17:50:28.851Z,45.00
2023-05-25T17:55:30.597Z,45.66
2023-05-25T18:00:32.342Z,46.34
2023-05-25T18:05:34.168Z,46.13
2023-05-25T18:10:35.834Z,46.07
2023-05-25T18:15:37.501Z,46.85
2023-05-25T18:20:39.193Z,47.18
2023-05-25T18:25:41.133Z,47.96
2023-05-25T18:30:43.008Z,47.89
2023-05-25T18:35:45.029Z,48.05
2023-05-25T18:40:46.908Z,48.70
2023-05-25T18:45:48.560Z,49.09
2023-05-25T18:50:50.589Z,50.91
2023-05-25T18:55:52.336Z,50.65
2023-05-25T19:00:54.080Z,50.97
2023-05-25T19:05:56.051Z,51.59
2023-05-25T19:10:57.832Z,52.19
2023-05-25T19:15:59.657Z,52.73
2023-05-25T19:21:02.299Z,53.00
2023-05-25T19:26:04.075Z,54.25
2023-05-25T19:31:05.871Z,55.55
2023-05-25T19:36:07.976Z,55.92
2023-05-25T19:41:09.958Z,55.93
2023-05-25T19:46:11.743Z,56.10
2023-05-25T19:51:13.592Z,57.39
2023-05-25T19:56:15.531Z,57.25
2023-05-25T20:01:17.294Z,58.48
2023-05-25T20:06:19.332Z,58.42
2023-05-25T20:11:21.040Z,60.03
2023-05-25T20:16:23.456Z,59.75
2023-05-25T20:21:25.328Z,60.25
2023-05-25T20:26:27.688Z,60.79
2023-05-25T20:31:29.559Z,60.58
2023-05-25T20:36:32.938Z,60.79
2023-05-25T20:41:34.771Z,61.40
2023-05-25T20:46:36.589Z,62.37
2023-05-25T20:51:38.301Z,62.88
2023-05-25T20:56:40.059Z,61.69
2023-05-25T21:01:41.834Z,61.26
2023-05-25T21:06:43.577Z,62.31
2023-05-25T21:11:45.688Z,63.61
2023-05-25T21:16:47.457Z,64.10
2023-05-25T21:21:49.259Z,64.33
2023-05-25T21:26:51.265Z,65.38
2023-05-25T21:31:53.067Z,64.85
2023-05-25T21:36:55.267Z,65.42
2023-05-25T21:41:56.960Z,65.01
2023-05-25T21:46:58.814Z,65.28
2023-05-25T21:52:00.684Z,66.86
2023-05-25T21:57:03.804Z,67.59
2023-05-25T22:02:05.707Z,66.50
2023-05-25T22:07:07.838Z,66.99
2023-05-25T22:12:12.336Z,66.70
2023-05-25T22:17:15.330Z,66.10
2023-05-25T22:22:17.119Z,65.62
2023-05-25T22:27:18.874Z,66.43
2023-05-25T22:32:20.722Z,66.56
2023-05-25T22:37:22.547Z,67.14
2023-05-25T22:42:24.362Z,68.92
2023-05-25T22:47:26.130Z,71.10
2023-05-25T22:52:28.015Z,69.93
2023-05-25T22:57:30.076Z,70.06
2023-05-25T23:02:31.950Z,70.98
2023-05-25T23:07:33.842Z,71.43
2023-05-25T23:12:35.716Z,71.97
2023-05-25T23:17:37.478Z,73.72
2023-05-25T23:22:39.455Z,74.21
2023-05-25T23:27:41.182Z,75.67
2023-05-25T23:32:42.904Z,76.24
2023-05-25T23:37:44.783Z,76.70
2023-05-25T23:42:46.516Z,78.29
2023-05-25T23:47:48.225Z,79.00
2023-05-25T23:52:49.938Z,81.08
2023-05-25T23:57:51.640Z,80.99
